Berrien Springs, MI

5:16 PM EST on November 25, 2014 (GMT -0500)
Berrien Springs Public Schools | Change Station
CLOSE
Current Station
Personal Weather Station
Location: Oronoko Charter Township, MI
Elevation: 669 ft
Nearby Weather Stations

Elev 669 ft 41.95 °N, 86.35 °W | Updated 4 seconds ago

Overcast
Overcast
27.7 °F
Feels Like 28 °F
N
0.4
Wind Variable Wind from WSW
Gusts 2.5 mph

Today
High -- | Low -- °F
--% Chance of Precip.
Yesterday
High -- | Low -- °F
Precip. -- in
7:47 AM 5:17 PM
Waxing Crescent, 14% visible
Pressure 30.16 in
Visibility 10.0 miles
Clouds Overcast 2500 ft
Windchill 28 °F
Dew Point 18 °F
Humidity 66%
Rainfall 0.00 in
Snow Depth Not available.
UV 0 out of 12
Pollen .10 out of 12
Air Quality Not available.
Flu Activity Not available.
METAR KBEH 252153Z AUTO 25007KT 10SM OVC025 M02/M07 A3013 RMK AO2 SLP211 T10221067

More Conditions Fewer Conditions

Pressure 30.16 in
Visibility 10.0 miles
Clouds Overcast 2500 ft
Windchill 28 °F
Dew Point 18 °F
Humidity 66%
Rainfall 0.00 in
Snow Depth Not available.
UV 0 out of 12
Pollen .10 out of 12
Air Quality Not available.
Flu Activity Not available.
METAR KBEH 252153Z AUTO 25007KT 10SM OVC025 M02/M07 A3013 RMK AO2 SLP211 T10221067

More Conditions Fewer Conditions

10-Day Weather Forecast

Almanac

Astronomy

Nov. 25, 2014 Rise Set
Actual Time
Civil Twilight
Nautical Twilight
Astronomical Twilight
Moon
Length of Visible Light
Length of Day
Tomorrow will be .
, % of the Moon is Illuminated

Today's Extremes

State Highs State Lows

Community

WunderPhotos

Upload Photos

1,773,608 photos uploaded!

WunderBlogs® & News

Nearby

Air Quality

  Air Quality AQ Index Pollutant
Not available.

Snow Depth

Station Depth Elevation

Earthquake Activity

City Distance Mag. Time & Date
Minimum magnitude displayed is 2.5.

Coastal Water Temperatures

Place Temperature

Nearby Weather Stations